Terminal Aerodrome Forecast
Issued by NWS Wilmington, NC

Home | Current Version | Previous Version | Text Only | Print | Product List | Glossary On
Versions: 1 2 3 4 5 6 7 8 9 10 11 12 13 14 15 16 17 18
834
FTUS42 KILM 281120
TAFMYR
TAF
KMYR 281120Z 2812/2912 22006KT P6SM BKN090
     FM281500 22007KT P6SM VCSH BKN080
      TEMPO 2816/2820 4SM TSRA OVC050CB
     FM282200 22008KT P6SM SCT050
     FM290900 30006KT P6SM FEW050
     FM291100 34006KT P6SM FEW050 FEW200=

USA.gov is the U.S. government's official web portal to all federal, state and local government web resources and services.